Time;durP1;ratioP1;P1;durP2;ratioP2;P2;SDS_P1;SDS_P2;PMS_P1;PMS_P2;Temp;Humidity;BMP_temperature;BMP_pressure;BME280_temperature;BME280_humidity;BME280_pressure;Samples;Min_cycle;Max_cycle;Signal;HPM_P1;HPM_P2
2021/09/09 00:01:18;;;;;;;10.25;7.32;;;24.50;77.20;;;;;;5071475;28;20031;-91
2021/09/09 00:03:44;;;;;;;8.50;6.60;;;24.50;77.30;;;;;;5072562;28;20130;-91
2021/09/09 00:06:10;;;;;;;7.63;6.20;;;24.40;77.50;;;;;;5072155;28;20086;-91
2021/09/09 00:08:35;;;;;;;9.82;7.55;;;24.40;77.70;;;;;;5072232;28;20507;-85
2021/09/09 00:11:01;;;;;;;9.05;6.75;;;24.40;78.00;;;;;;5072399;28;20032;-91
2021/09/09 00:13:27;;;;;;;9.30;6.72;;;24.40;78.10;;;;;;5070839;28;20036;-88
2021/09/09 00:15:52;;;;;;;9.20;6.78;;;24.40;78.30;;;;;;5072174;28;20392;-91
2021/09/09 00:18:18;;;;;;;10.73;7.32;;;24.40;78.50;;;;;;5071607;28;20086;-89
2021/09/09 00:20:44;;;;;;;9.60;6.45;;;24.40;78.70;;;;;;5072093;28;20024;-87
2021/09/09 00:23:09;;;;;;;9.52;6.70;;;24.40;79.00;;;;;;5070250;28;20021;-86
2021/09/09 00:25:36;;;;;;;8.45;6.68;;;24.40;79.10;;;;;;5070556;28;20081;-90
2021/09/09 00:28:01;;;;;;;7.30;6.38;;;24.40;79.10;;;;;;5070351;28;20573;-89
2021/09/09 00:30:27;;;;;;;9.32;7.22;;;24.40;79.40;;;;;;5070126;28;20036;-89
2021/09/09 00:32:53;;;;;;;8.88;7.35;;;24.40;79.40;;;;;;5071336;28;20043;-90
2021/09/09 00:35:18;;;;;;;10.45;7.35;;;24.40;79.30;;;;;;5071114;28;20480;-88
2021/09/09 00:37:44;;;;;;;8.70;7.45;;;24.40;79.20;;;;;;5071488;28;20082;-90
2021/09/09 00:40:10;;;;;;;8.38;7.32;;;24.40;79.40;;;;;;5071620;28;20392;-90
2021/09/09 00:42:36;;;;;;;8.73;7.25;;;24.50;79.40;;;;;;5071626;28;20021;-89
2021/09/09 00:45:02;;;;;;;9.77;6.88;;;24.40;79.40;;;;;;5072129;28;20043;-90
2021/09/09 00:47:27;;;;;;;8.50;6.35;;;24.40;79.40;;;;;;5071081;28;20116;-90
2021/09/09 00:49:53;;;;;;;8.45;7.18;;;24.40;79.40;;;;;;5071765;28;20408;-91
2021/09/09 00:52:19;;;;;;;8.27;6.95;;;24.40;79.50;;;;;;5071557;28;20043;-90
2021/09/09 00:54:46;;;;;;;9.45;6.82;;;24.40;79.40;;;;;;5070299;28;20016;-90
2021/09/09 00:57:14;;;;;;;8.18;6.88;;;24.40;79.60;;;;;;5071206;28;20025;-91
2021/09/09 00:59:40;;;;;;;9.75;6.82;;;24.40;79.50;;;;;;5072301;28;20023;-92
2021/09/09 01:02:06;;;;;;;8.43;6.93;;;24.40;79.60;;;;;;5072404;28;20400;-93
2021/09/09 01:04:32;;;;;;;9.77;7.55;;;24.40;79.50;;;;;;5071246;28;20522;-88
2021/09/09 01:06:59;;;;;;;8.82;7.53;;;24.40;79.60;;;;;;5071391;28;20040;-89
2021/09/09 01:09:25;;;;;;;8.45;6.88;;;24.40;79.60;;;;;;5071915;28;20027;-91
2021/09/09 01:11:50;;;;;;;8.35;6.70;;;24.40;79.70;;;;;;5070294;28;20115;-91
2021/09/09 01:14:17;;;;;;;9.70;7.15;;;24.40;79.70;;;;;;5070930;28;20029;-93
2021/09/09 01:16:45;;;;;;;9.32;7.53;;;24.30;79.60;;;;;;5071207;28;20024;-91
2021/09/09 01:19:11;;;;;;;10.85;6.65;;;24.40;79.70;;;;;;5070395;28;20036;-90
2021/09/09 01:21:38;;;;;;;10.40;7.05;;;24.40;79.70;;;;;;5071613;28;20024;-85
2021/09/09 01:24:14;;;;;;;8.00;6.18;;;24.40;79.80;;;;;;5070047;28;20038;-90
2021/09/09 01:26:58;;;;;;;8.15;6.90;;;24.30;79.80;;;;;;5070790;28;20028;-89
2021/09/09 01:29:30;;;;;;;7.97;6.38;;;24.30;79.80;;;;;;5069368;28;20052;-92
2021/09/09 01:31:56;;;;;;;9.60;6.43;;;24.30;79.90;;;;;;5071278;28;20154;-85
2021/09/09 01:34:22;;;;;;;10.77;7.00;;;24.30;79.80;;;;;;5070137;28;20508;-91
2021/09/09 01:36:48;;;;;;;9.93;6.63;;;24.30;79.90;;;;;;5070828;28;20025;-88
2021/09/09 01:39:14;;;;;;;10.93;6.93;;;24.30;79.90;;;;;;5070749;28;20096;-91
2021/09/09 01:41:41;;;;;;;10.57;6.78;;;24.30;79.90;;;;;;5071073;28;20111;-90
2021/09/09 01:44:06;;;;;;;7.57;5.97;;;24.30;80.00;;;;;;5071025;28;20115;-81
2021/09/09 01:46:32;;;;;;;9.88;7.00;;;24.30;80.00;;;;;;5071486;28;20444;-92
2021/09/09 01:48:58;;;;;;;9.05;6.80;;;24.30;79.90;;;;;;5069673;28;20024;-90
2021/09/09 01:51:26;;;;;;;7.93;6.80;;;24.30;80.00;;;;;;5070645;28;20135;-91
2021/09/09 01:53:55;;;;;;;8.32;6.75;;;24.30;80.00;;;;;;5070463;28;20036;-91
2021/09/09 01:56:21;;;;;;;9.27;6.93;;;24.30;80.00;;;;;;5070884;28;20427;-90
2021/09/09 01:58:47;;;;;;;7.00;6.20;;;24.30;80.00;;;;;;5070857;28;20488;-90
2021/09/09 02:01:12;;;;;;;7.53;6.68;;;24.30;80.10;;;;;;5070692;28;20106;-88
2021/09/09 02:03:38;;;;;;;8.43;6.15;;;24.30;80.20;;;;;;5070335;28;20482;-88
2021/09/09 02:06:04;;;;;;;8.23;6.63;;;24.20;80.10;;;;;;5070197;28;20024;-90
2021/09/09 02:08:29;;;;;;;8.35;6.53;;;24.20;80.10;;;;;;5070237;28;20086;-88
2021/09/09 02:10:55;;;;;;;8.52;6.65;;;24.20;80.30;;;;;;5070506;28;20104;-88
2021/09/09 02:13:21;;;;;;;10.52;7.25;;;24.20;80.30;;;;;;5069588;28;20163;-90
2021/09/09 02:15:46;;;;;;;8.50;6.65;;;24.20;80.40;;;;;;5070322;28;20107;-89
2021/09/09 02:18:12;;;;;;;10.23;7.05;;;24.20;80.50;;;;;;5068504;28;20041;-89
2021/09/09 02:20:38;;;;;;;8.68;6.85;;;24.20;80.50;;;;;;5070625;28;20468;-88
2021/09/09 02:23:04;;;;;;;9.30;7.35;;;24.20;80.60;;;;;;5070509;28;20103;-88
2021/09/09 02:25:30;;;;;;;7.63;6.75;;;24.10;80.60;;;;;;5070204;28;20021;-88
2021/09/09 02:27:55;;;;;;;8.27;6.55;;;24.10;80.70;;;;;;5070524;28;20024;-89
2021/09/09 02:30:21;;;;;;;8.45;6.70;;;24.10;80.70;;;;;;5069464;28;20028;-88
2021/09/09 02:32:47;;;;;;;8.13;6.70;;;24.10;80.80;;;;;;5070488;28;20039;-88
2021/09/09 02:35:13;;;;;;;8.15;6.55;;;24.10;80.80;;;;;;5070895;28;20380;-88
2021/09/09 02:37:38;;;;;;;9.18;7.03;;;24.10;80.90;;;;;;5073182;28;20033;-87
2021/09/09 02:40:06;;;;;;;7.13;6.30;;;24.10;80.90;;;;;;5074321;28;20025;-87
2021/09/09 02:42:32;;;;;;;7.55;6.53;;;24.10;81.00;;;;;;5073808;28;20032;-89
2021/09/09 02:44:57;;;;;;;8.20;6.40;;;24.10;81.00;;;;;;5073244;28;20601;-86
2021/09/09 02:47:23;;;;;;;8.88;7.40;;;24.10;81.00;;;;;;5073192;28;20443;-89
2021/09/09 02:49:48;;;;;;;8.40;6.45;;;24.10;81.00;;;;;;5072021;28;20060;-88
2021/09/09 02:52:14;;;;;;;14.63;7.80;;;24.10;81.00;;;;;;5073224;28;20040;-89
2021/09/09 02:54:40;;;;;;;9.48;7.15;;;24.10;81.10;;;;;;5072964;28;20063;-89
2021/09/09 02:57:06;;;;;;;9.40;7.82;;;24.10;81.10;;;;;;5073257;28;20514;-89
2021/09/09 02:59:31;;;;;;;9.07;7.10;;;24.10;81.00;;;;;;5073562;28;20400;-90
2021/09/09 03:01:57;;;;;;;9.05;7.68;;;24.10;81.00;;;;;;5073629;28;20028;-90
2021/09/09 03:04:22;;;;;;;9.70;7.75;;;24.10;81.10;;;;;;5072784;28;20507;-89
2021/09/09 03:06:48;;;;;;;9.90;7.60;;;24.10;81.20;;;;;;5072519;28;20443;-87
2021/09/09 03:09:14;;;;;;;11.10;7.78;;;24.00;81.20;;;;;;5072737;28;20520;-88
2021/09/09 03:11:39;;;;;;;10.55;7.03;;;24.10;81.50;;;;;;5072878;28;20555;-86
2021/09/09 03:14:05;;;;;;;10.55;7.47;;;24.10;81.50;;;;;;5072394;28;20401;-89
2021/09/09 03:16:30;;;;;;;9.10;7.60;;;24.00;81.50;;;;;;5071165;28;20496;-88
2021/09/09 03:18:56;;;;;;;10.07;8.25;;;24.00;81.60;;;;;;5071651;28;20032;-89
2021/09/09 03:21:22;;;;;;;10.13;7.00;;;24.00;81.70;;;;;;5073289;28;20035;-91
2021/09/09 03:23:47;;;;;;;9.90;7.25;;;24.10;81.70;;;;;;5072924;28;20444;-90
2021/09/09 03:26:13;;;;;;;11.13;7.32;;;24.10;82.50;;;;;;5071656;28;20021;-87
2021/09/09 03:28:39;;;;;;;9.10;7.50;;;24.00;81.80;;;;;;5073162;28;20120;-90
2021/09/09 03:31:04;;;;;;;8.77;7.78;;;24.00;81.80;;;;;;5073371;28;20103;-89
2021/09/09 03:33:30;;;;;;;9.00;6.97;;;24.00;81.80;;;;;;5072617;28;20032;-91
2021/09/09 03:35:56;;;;;;;9.82;8.10;;;24.00;82.00;;;;;;5072275;28;20468;-87
2021/09/09 03:38:21;;;;;;;9.48;6.85;;;24.00;82.20;;;;;;5072377;28;20225;-89
2021/09/09 03:40:47;;;;;;;11.93;7.82;;;24.00;82.20;;;;;;5072770;28;20068;-88
2021/09/09 03:43:13;;;;;;;10.57;7.88;;;24.00;82.30;;;;;;5072665;28;20056;-87
2021/09/09 03:45:38;;;;;;;11.43;7.38;;;24.00;82.50;;;;;;5072673;28;20093;-87
2021/09/09 03:48:04;;;;;;;9.15;7.45;;;24.00;82.60;;;;;;5072729;28;20079;-85
2021/09/09 03:50:30;;;;;;;8.30;7.07;;;24.00;82.80;;;;;;5071845;28;20025;-86
2021/09/09 03:52:55;;;;;;;10.45;7.60;;;23.90;82.80;;;;;;5052412;28;20094;-88
2021/09/09 03:55:21;;;;;;;8.70;7.47;;;23.90;83.00;;;;;;5068748;28;20613;-89
2021/09/09 03:57:48;;;;;;;10.15;6.82;;;23.90;83.00;;;;;;5072525;28;20028;-90
2021/09/09 04:00:15;;;;;;;8.88;6.80;;;23.90;83.10;;;;;;5072453;28;20031;-92
2021/09/09 04:02:40;;;;;;;8.95;7.65;;;23.90;83.10;;;;;;5072346;28;20032;-85
2021/09/09 04:05:07;;;;;;;9.35;7.07;;;23.90;83.30;;;;;;5071712;28;20032;-88
2021/09/09 04:07:33;;;;;;;9.77;7.40;;;23.90;83.20;;;;;;5072146;28;20017;-85
2021/09/09 04:09:59;;;;;;;9.93;8.15;;;23.90;83.30;;;;;;5070114;28;20123;-83
2021/09/09 04:12:25;;;;;;;10.63;7.30;;;23.90;83.50;;;;;;5071532;28;20025;-87
2021/09/09 04:14:50;;;;;;;10.43;7.10;;;23.90;83.50;;;;;;5071820;28;20027;-86
2021/09/09 04:17:16;;;;;;;8.93;6.90;;;23.90;83.60;;;;;;5071779;28;20032;-86
2021/09/09 04:19:42;;;;;;;9.02;6.90;;;23.90;83.80;;;;;;5071448;28;20504;-87
2021/09/09 04:22:09;;;;;;;9.68;6.80;;;23.90;83.80;;;;;;5071703;28;20029;-85
2021/09/09 04:24:35;;;;;;;8.90;7.28;;;23.90;84.00;;;;;;5071466;28;20376;-89
2021/09/09 04:27:02;;;;;;;10.40;8.35;;;23.90;84.10;;;;;;5072449;28;20084;-92
2021/09/09 04:29:28;;;;;;;9.32;7.18;;;23.90;84.10;;;;;;5070989;28;20056;-93
2021/09/09 04:31:53;;;;;;;8.77;7.20;;;23.90;84.10;;;;;;5071708;28;20555;-90
2021/09/09 04:34:19;;;;;;;8.73;7.00;;;23.90;84.20;;;;;;5071358;28;20043;-86
2021/09/09 04:36:44;;;;;;;9.07;7.05;;;23.90;84.40;;;;;;5071725;28;20021;-90
2021/09/09 04:39:10;;;;;;;12.02;7.25;;;23.90;84.40;;;;;;5071109;28;20028;-87
2021/09/09 04:41:37;;;;;;;8.68;7.10;;;23.90;84.60;;;;;;5071267;28;20033;-87
2021/09/09 04:44:04;;;;;;;9.05;7.00;;;23.90;84.50;;;;;;5071424;28;20396;-83
2021/09/09 04:46:29;;;;;;;9.52;7.55;;;23.90;84.50;;;;;;5071475;28;20365;-87
2021/09/09 04:48:55;;;;;;;8.85;7.18;;;23.90;84.40;;;;;;5070921;28;20119;-86
2021/09/09 04:51:21;;;;;;;8.48;7.25;;;23.90;84.30;;;;;;5071625;28;20099;-87
2021/09/09 04:53:47;;;;;;;9.57;7.60;;;23.90;84.40;;;;;;5071434;28;20070;-85
2021/09/09 04:56:12;;;;;;;8.57;6.60;;;23.90;84.70;;;;;;5070700;28;20494;-86
2021/09/09 04:58:38;;;;;;;8.93;7.13;;;23.90;84.80;;;;;;5070782;28;20032;-88
2021/09/09 05:01:04;;;;;;;10.25;6.82;;;23.90;85.10;;;;;;5071398;28;20031;-87
2021/09/09 05:03:29;;;;;;;9.93;7.13;;;23.90;85.30;;;;;;5070203;28;20515;-86
2021/09/09 05:05:55;;;;;;;8.85;7.10;;;23.90;85.40;;;;;;5070180;28;20500;-83
2021/09/09 05:08:20;;;;;;;8.02;6.68;;;23.90;85.50;;;;;;5070901;28;20071;-84
2021/09/09 05:10:46;;;;;;;8.77;6.88;;;23.90;85.50;;;;;;5070744;28;20047;-76
2021/09/09 05:13:12;;;;;;;12.18;6.90;;;23.90;85.70;;;;;;5069778;28;20086;-80
2021/09/09 05:15:37;;;;;;;9.38;6.88;;;23.90;85.80;;;;;;5068516;28;20012;-80
2021/09/09 05:18:03;;;;;;;10.18;7.13;;;23.90;86.00;;;;;;5070641;28;20404;-85
2021/09/09 05:20:28;;;;;;;8.98;6.47;;;23.90;86.10;;;;;;5070175;28;20032;-85
2021/09/09 05:22:54;;;;;;;9.93;6.13;;;23.90;86.20;;;;;;5070351;28;20483;-80
2021/09/09 05:25:20;;;;;;;9.32;6.72;;;23.90;86.00;;;;;;5069803;28;20017;-82
2021/09/09 05:27:45;;;;;;;9.95;5.97;;;23.90;85.80;;;;;;5071089;28;20036;-86
2021/09/09 05:30:11;;;;;;;8.07;6.60;;;23.90;85.70;;;;;;5070143;28;20031;-83
2021/09/09 05:32:38;;;;;;;9.77;7.32;;;23.90;85.70;;;;;;5070521;28;20169;-82
2021/09/09 05:35:04;;;;;;;12.50;7.65;;;23.90;86.10;;;;;;5070818;28;20496;-84
2021/09/09 05:37:29;;;;;;;9.88;6.47;;;23.90;85.70;;;;;;5065978;28;20439;-83
2021/09/09 05:39:55;;;;;;;7.70;6.60;;;23.90;86.10;;;;;;5057342;28;20099;-82
2021/09/09 05:42:21;;;;;;;12.35;8.10;;;23.90;85.80;;;;;;5069698;28;20025;-83
2021/09/09 05:44:47;;;;;;;9.98;7.80;;;23.90;85.80;;;;;;5070370;28;20033;-82
2021/09/09 05:47:12;;;;;;;11.88;7.80;;;23.90;86.00;;;;;;5069863;28;20492;-82
2021/09/09 05:49:38;;;;;;;13.68;7.25;;;23.90;86.20;;;;;;5069513;28;20028;-82
2021/09/09 05:52:05;;;;;;;9.32;8.00;;;23.90;86.20;;;;;;5070794;28;20032;-84
2021/09/09 05:54:33;;;;;;;12.68;6.88;;;23.90;86.20;;;;;;5069844;28;20025;-81
2021/09/09 05:57:00;;;;;;;11.07;7.28;;;23.90;88.20;;;;;;5070253;28;20561;-93
2021/09/09 05:59:26;;;;;;;11.70;7.38;;;23.90;87.70;;;;;;5070231;28;20111;-84
2021/09/09 06:01:51;;;;;;;12.93;7.78;;;23.90;87.60;;;;;;5069961;28;20020;-85
2021/09/09 06:04:18;;;;;;;13.60;7.35;;;23.90;88.30;;;;;;5070087;28;20094;-86
2021/09/09 06:06:44;;;;;;;9.60;6.90;;;23.90;88.40;;;;;;5070297;28;20020;-84
2021/09/09 06:09:10;;;;;;;13.60;7.95;;;23.90;88.40;;;;;;5070207;28;20025;-83
2021/09/09 06:11:36;;;;;;;14.55;7.40;;;24.00;88.70;;;;;;5072471;28;20412;-82
2021/09/09 06:14:02;;;;;;;10.93;7.07;;;24.00;88.80;;;;;;5073428;28;20032;-83
2021/09/09 06:16:27;;;;;;;10.50;6.20;;;24.00;88.90;;;;;;5072816;28;20419;-81
2021/09/09 06:18:53;;;;;;;10.13;6.72;;;23.90;89.10;;;;;;5073532;28;20032;-80
2021/09/09 06:21:19;;;;;;;12.90;7.35;;;23.90;89.70;;;;;;5072321;28;20021;-86
2021/09/09 06:23:44;;;;;;;12.35;6.95;;;24.00;90.20;;;;;;5073610;28;20044;-83
2021/09/09 06:26:10;;;;;;;17.35;7.78;;;23.90;90.30;;;;;;5073177;28;20031;-85
2021/09/09 06:28:35;;;;;;;13.75;7.97;;;23.90;90.90;;;;;;5073668;28;20025;-81
2021/09/09 06:31:01;;;;;;;13.63;7.55;;;23.90;91.00;;;;;;5072891;28;20070;-81
2021/09/09 06:33:27;;;;;;;10.90;7.88;;;23.90;90.80;;;;;;5071969;28;20040;-81
2021/09/09 06:35:52;;;;;;;13.55;6.90;;;23.90;90.90;;;;;;5072582;28;20028;-81
2021/09/09 06:38:18;;;;;;;10.73;7.28;;;23.90;90.90;;;;;;5073528;28;20036;-81
2021/09/09 06:40:44;;;;;;;12.75;7.25;;;23.90;90.90;;;;;;5073712;28;20372;-81
2021/09/09 06:43:09;;;;;;;11.20;7.07;;;23.90;90.80;;;;;;5073727;28;20047;-82
2021/09/09 06:45:35;;;;;;;9.88;6.38;;;23.90;91.10;;;;;;5073867;28;20103;-80
2021/09/09 06:48:01;;;;;;;8.40;6.38;;;23.90;91.20;;;;;;5073797;28;20078;-82
2021/09/09 06:50:27;;;;;;;10.25;6.70;;;23.90;91.20;;;;;;5073635;28;20024;-81
2021/09/09 06:52:52;;;;;;;9.20;6.60;;;23.90;91.10;;;;;;5073612;28;20037;-80
2021/09/09 06:55:18;;;;;;;11.27;6.72;;;23.90;91.30;;;;;;5073371;28;20028;-81
2021/09/09 06:57:43;;;;;;;9.68;6.95;;;23.90;91.30;;;;;;5073656;28;20077;-79
2021/09/09 07:00:09;;;;;;;10.10;6.72;;;23.90;91.30;;;;;;5073048;28;20056;-81
2021/09/09 07:02:35;;;;;;;10.25;6.55;;;23.90;91.30;;;;;;5073930;28;20468;-79
2021/09/09 07:05:01;;;;;;;9.68;7.07;;;23.90;91.40;;;;;;5073412;28;20033;-79
2021/09/09 07:07:26;;;;;;;12.35;7.13;;;23.90;91.40;;;;;;5073306;28;20033;-80
2021/09/09 07:09:52;;;;;;;10.10;6.47;;;23.90;91.40;;;;;;5073115;28;20551;-81
2021/09/09 07:12:18;;;;;;;8.75;6.25;;;23.90;91.30;;;;;;5073006;28;20025;-81
2021/09/09 07:14:43;;;;;;;8.98;6.60;;;23.90;91.40;;;;;;5073356;28;20031;-80
2021/09/09 07:17:09;;;;;;;11.23;7.32;;;23.90;91.40;;;;;;5073078;28;20099;-81
2021/09/09 07:19:35;;;;;;;10.32;6.43;;;23.90;91.60;;;;;;5073596;28;20025;-81
2021/09/09 07:22:01;;;;;;;9.90;6.53;;;23.90;91.50;;;;;;5072699;28;20013;-81
2021/09/09 07:24:26;;;;;;;10.70;7.38;;;23.90;91.60;;;;;;5072920;28;20373;-81
2021/09/09 07:26:52;;;;;;;10.38;6.80;;;23.90;91.60;;;;;;5072982;28;20021;-82
2021/09/09 07:29:18;;;;;;;8.68;6.93;;;23.90;91.60;;;;;;5072793;28;20021;-81
2021/09/09 07:31:44;;;;;;;11.63;6.68;;;23.90;91.50;;;;;;5072949;28;20491;-81
2021/09/09 07:34:11;;;;;;;9.65;7.38;;;23.90;91.60;;;;;;5072661;28;20476;-80
2021/09/09 07:36:37;;;;;;;10.63;7.68;;;23.90;91.60;;;;;;5073084;28;20107;-80
2021/09/09 07:39:04;;;;;;;10.30;6.90;;;23.90;91.60;;;;;;5072919;28;20511;-81
2021/09/09 07:41:30;;;;;;;12.02;7.55;;;23.90;91.60;;;;;;5072398;28;20016;-81
2021/09/09 07:43:55;;;;;;;9.10;6.70;;;23.90;91.60;;;;;;5072765;28;20020;-81
2021/09/09 07:46:21;;;;;;;9.73;6.85;;;23.90;91.50;;;;;;5071478;28;20024;-81
2021/09/09 07:48:47;;;;;;;7.70;6.53;;;23.90;91.70;;;;;;5072434;28;20028;-81
2021/09/09 07:51:15;;;;;;;9.57;7.00;;;23.90;91.60;;;;;;5072377;28;20062;-81
2021/09/09 07:53:41;;;;;;;9.70;6.03;;;23.90;91.60;;;;;;5072508;28;20029;-81
2021/09/09 07:56:07;;;;;;;10.65;6.28;;;23.90;91.70;;;;;;5072362;28;20034;-79
2021/09/09 07:58:32;;;;;;;9.95;6.32;;;23.90;91.80;;;;;;5072650;28;20392;-81
2021/09/09 08:00:58;;;;;;;8.77;6.28;;;23.90;91.70;;;;;;5072318;28;20031;-81
2021/09/09 08:03:23;;;;;;;9.48;5.93;;;23.90;91.70;;;;;;5072171;28;20086;-80
2021/09/09 08:05:49;;;;;;;8.48;6.35;;;23.90;91.80;;;;;;5072274;28;20529;-80
2021/09/09 08:08:15;;;;;;;11.48;6.28;;;23.90;91.80;;;;;;5071757;28;20031;-81
2021/09/09 08:10:40;;;;;;;7.72;6.18;;;23.90;91.70;;;;;;5072111;28;20032;-80
2021/09/09 08:13:06;;;;;;;9.82;6.45;;;24.00;91.80;;;;;;5072094;28;20040;-81
2021/09/09 08:15:32;;;;;;;7.32;5.78;;;24.00;91.80;;;;;;5072464;28;20013;-81
2021/09/09 08:17:57;;;;;;;10.18;6.60;;;24.00;91.80;;;;;;5072096;28;20036;-81
2021/09/09 08:20:23;;;;;;;8.77;5.60;;;24.00;91.90;;;;;;5071659;28;20055;-81
2021/09/09 08:22:48;;;;;;;7.95;6.15;;;24.00;91.80;;;;;;5071713;28;20024;-80
2021/09/09 08:25:14;;;;;;;11.98;7.00;;;23.90;91.90;;;;;;5071756;28;20100;-81
2021/09/09 08:27:40;;;;;;;8.63;6.00;;;24.00;92.00;;;;;;5071802;28;20040;-81
2021/09/09 08:30:07;;;;;;;8.23;5.78;;;;;;;;;;5072076;28;20024;-81
2021/09/09 08:32:33;;;;;;;8.50;5.20;;;;;;;;;;5071403;28;20044;-81
2021/09/09 08:34:59;;;;;;;9.23;5.68;;;;;;;;;;5071851;28;20039;-81
2021/09/09 08:37:25;;;;;;;11.60;5.88;;;;;;;;;;5071342;28;20488;-81
2021/09/09 08:39:51;;;;;;;7.78;5.93;;;;;;;;;;5071529;28;20031;-80
2021/09/09 08:42:18;;;;;;;7.68;5.60;;;;;;;;;;5071182;28;20107;-79
2021/09/09 08:44:45;;;;;;;8.77;5.50;;;;;;;;;;5071529;28;20032;-78
2021/09/09 08:47:11;;;;;;;6.80;5.43;;;;;;;;;;5071450;28;20380;-81
2021/09/09 08:49:37;;;;;;;9.90;5.75;;;;;;;;;;5071688;28;20101;-79
2021/09/09 08:52:04;;;;;;;11.65;5.85;;;;;;;;;;5071664;28;20035;-79
2021/09/09 08:54:31;;;;;;;8.88;5.70;;;;;;;;;;5071277;28;20028;-80
2021/09/09 08:56:57;;;;;;;8.35;5.50;;;;;;;;;;5071172;28;20043;-81
2021/09/09 08:59:23;;;;;;;5.82;4.95;;;;;;;;;;5071212;28;20028;-80
2021/09/09 09:02:03;;;;;;;9.30;5.05;;;;;;;;;;5071305;28;20024;-81
2021/09/09 09:04:30;;;;;;;10.43;5.68;;;;;;;;;;5071125;28;20028;-80
2021/09/09 09:06:56;;;;;;;10.45;5.70;;;;;;;;;;5071024;28;20025;-81
2021/09/09 09:09:26;;;;;;;8.15;5.20;;;;;;;;;;5070788;28;20027;-80
2021/09/09 09:11:53;;;;;;;8.40;5.00;;;;;;;;;;5071053;28;20082;-81
2021/09/09 09:14:23;;;;;;;5.82;4.45;;;;;;;;;;5070975;28;20108;-80
2021/09/09 09:16:56;;;;;;;8.25;4.78;;;;;;;;;;5071251;28;20106;-81
2021/09/09 09:19:24;;;;;;;6.35;4.75;;;;;;;;;;5070625;28;20031;-80
2021/09/09 09:21:52;;;;;;;8.65;5.05;;;;;;;;;;5069680;28;20116;-81
2021/09/09 09:24:19;;;;;;;6.65;4.93;;;;;;;;;;5070893;28;20031;-80
2021/09/09 09:27:04;;;;;;;9.90;5.10;;;;;;;;;;5069759;28;20484;-81
2021/09/09 09:29:30;;;;;;;8.25;4.88;;;;;;;;;;5070887;28;20494;-81
2021/09/09 09:32:12;;;;;;;7.20;4.60;;;;;;;;;;5071001;28;20507;-81
2021/09/09 09:34:38;;;;;;;9.13;4.85;;;;;;;;;;5071027;28;20563;-80
2021/09/09 09:37:04;;;;;;;7.10;4.57;;;;;;;;;;5071439;28;20095;-81
2021/09/09 09:39:31;;;;;;;6.65;4.30;;;;;;;;;;5070779;28;20036;-80
2021/09/09 09:42:00;;;;;;;6.07;4.50;;;;;;;;;;5070843;28;20033;-81
2021/09/09 09:44:29;;;;;;;8.93;5.05;;;;;;;;;;5072205;28;20047;-81
2021/09/09 09:47:05;;;;;;;6.50;4.55;;;;;;;;;;5074961;28;20115;-81
2021/09/09 09:49:31;;;;;;;7.38;4.45;;;;;;;;;;5074754;28;20489;-79
2021/09/09 09:51:59;;;;;;;5.25;4.38;;;;;;;;;;5074557;28;20041;-81
2021/09/09 09:54:26;;;;;;;6.65;5.07;;;;;;;;;;5074409;28;20028;-81
2021/09/09 09:56:52;;;;;;;5.68;4.38;;;;;;;;;;5074561;28;20484;-81
2021/09/09 09:59:18;;;;;;;7.38;4.32;;;23.90;92.00;;;;;;5074421;28;20020;-81
2021/09/09 10:01:45;;;;;;;6.68;4.28;;;24.10;92.60;;;;;;5074603;28;20025;-81
2021/09/09 10:04:15;;;;;;;6.55;4.15;;;24.10;92.70;;;;;;5074392;28;20028;-80
2021/09/09 10:06:42;;;;;;;6.47;4.55;;;24.10;92.80;;;;;;5074582;28;20020;-81
2021/09/09 10:09:09;;;;;;;7.18;4.47;;;24.10;92.80;;;;;;5074127;28;20031;-80
2021/09/09 10:11:35;;;;;;;6.10;4.53;;;24.10;92.80;;;;;;5074633;28;20488;-80
2021/09/09 10:14:04;;;;;;;5.88;4.18;;;24.10;92.80;;;;;;5074433;28;20035;-81
2021/09/09 10:16:35;;;;;;;7.43;3.83;;;24.10;92.70;;;;;;5074295;28;20433;-81
2021/09/09 10:19:00;;;;;;;5.43;4.05;;;24.10;92.70;;;;;;5074365;28;20025;-81
2021/09/09 10:21:38;;;;;;;5.13;4.10;;;;;;;;;;5074179;28;20261;-81
2021/09/09 10:24:08;;;;;;;7.88;4.88;;;;;;;;;;5074221;28;20488;-81
2021/09/09 10:26:34;;;;;;;5.88;4.32;;;;;;;;;;5074376;28;20381;-81
2021/09/09 10:29:00;;;;;;;6.30;3.92;;;;;;;;;;5074233;28;20054;-81
2021/09/09 10:31:36;;;;;;;5.20;3.35;;;;;;;;;;5073786;28;20024;-81
2021/09/09 10:34:06;;;;;;;7.18;4.20;;;;;;;;;;5074401;28;20039;-81
2021/09/09 10:36:39;;;;;;;5.97;4.57;;;;;;;;;;5074313;28;20544;-81
2021/09/09 10:39:05;;;;;;;6.97;3.70;;;;;;;;;;5074574;28;20388;-81
2021/09/09 10:41:31;;;;;;;5.25;3.83;;;;;;;;;;5073798;28;20025;-81
2021/09/09 10:43:58;;;;;;;4.35;3.88;;;;;;;;;;5073983;28;20039;-81
2021/09/09 10:46:29;;;;;;;7.43;4.05;;;;;;;;;;5073738;28;20492;-80
2021/09/09 10:49:27;;;;;;;6.53;4.85;;;;;;;;;;5073924;28;20051;-81
2021/09/09 10:52:04;;;;;;;5.07;3.78;;;;;;;;;;5061775;28;20512;-81
2021/09/09 10:54:31;;;;;;;4.18;3.40;;;;;;;;;;5073446;28;20484;-80
2021/09/09 10:57:15;;;;;;;5.35;3.97;;;;;;;;;;5072967;28;20112;-81
2021/09/09 10:59:48;;;;;;;4.78;3.55;;;;;;;;;;5073754;28;20031;-81
2021/09/09 11:02:15;;;;;;;6.63;3.55;;;;;;;;;;5073394;28;20029;-81
2021/09/09 11:04:42;;;;;;;4.40;3.53;;;;;;;;;;5072289;28;20503;-81
2021/09/09 11:07:23;;;;;;;6.68;3.45;;;;;;;;;;5073332;28;20111;-80
2021/09/09 11:10:03;;;;;;;6.00;3.83;;;;;;;;;;5073028;28;20107;-80
2021/09/09 11:12:35;;;;;;;5.03;3.95;;;;;;;;;;5073165;28;20040;-81
2021/09/09 11:15:02;;;;;;;5.97;3.60;;;;;;;;;;5073428;28;20036;-80
2021/09/09 11:17:28;;;;;;;5.60;3.47;;;;;;;;;;5073143;28;20028;-80
2021/09/09 11:20:01;;;;;;;4.90;3.17;;;;;;;;;;5073148;28;20027;-81
2021/09/09 11:22:27;;;;;;;4.72;3.70;;;;;;;;;;5072963;28;20055;-80
2021/09/09 11:24:53;;;;;;;6.97;3.30;;;;;;;;;;5073142;28;20028;-80
2021/09/09 11:27:19;;;;;;;4.55;3.28;;;;;;;;;;5072989;28;20040;-81
2021/09/09 11:29:54;;;;;;;4.50;3.65;;;;;;;;;;5073076;28;20488;-81
2021/09/09 11:32:20;;;;;;;4.57;3.00;;;;;;;;;;5072646;28;20040;-81
2021/09/09 11:34:46;;;;;;;6.63;3.20;;;;;;;;;;5073052;28;20070;-81
2021/09/09 11:37:13;;;;;;;4.05;3.20;;;;;;;;;;5072424;28;20025;-81
2021/09/09 11:39:39;;;;;;;4.75;3.17;;;;;;;;;;5071579;28;20020;-81
2021/09/09 11:42:06;;;;;;;4.63;3.10;;;;;;;;;;5073260;28;20104;-81
2021/09/09 11:44:34;;;;;;;5.80;3.45;;;;;;;;;;5073138;28;20052;-80
2021/09/09 11:47:01;;;;;;;7.35;3.25;;;;;;;;;;5072695;28;20476;-79
2021/09/09 11:49:30;;;;;;;6.13;3.47;;;;;;;;;;5072465;28;20453;-80
2021/09/09 11:52:00;;;;;;;5.18;3.35;;;;;;;;;;5072265;28;20020;-80
2021/09/09 11:54:27;;;;;;;5.00;2.90;;;;;;;;;;5072288;28;20555;-80
2021/09/09 11:57:02;;;;;;;6.75;3.25;;;;;;;;;;5072445;28;20112;-80
2021/09/09 11:59:29;;;;;;;4.00;2.97;;;;;;;;;;5071871;28;20032;-79
2021/09/09 12:02:05;;;;;;;3.85;2.80;;;;;;;;;;5072231;28;20377;-80
2021/09/09 12:04:31;;;;;;;5.07;2.85;;;;;;;;;;5071896;28;20078;-81
2021/09/09 12:06:57;;;;;;;7.07;3.33;;;;;;;;;;5072322;28;20606;-80
2021/09/09 12:09:24;;;;;;;4.75;3.20;;;;;;;;;;5071969;28;20052;-78
2021/09/09 12:12:02;;;;;;;5.82;2.50;;;;;;;;;;5071957;28;20118;-79
2021/09/09 12:14:27;;;;;;;3.30;2.70;;;24.20;92.70;;;;;;5071732;28;20048;-80
2021/09/09 12:17:08;;;;;;;4.25;2.60;;;25.10;90.80;;;;;;5071845;28;20400;-80
2021/09/09 12:19:52;;;;;;;3.55;2.95;;;25.10;90.80;;;;;;5072527;28;20056;-80
2021/09/09 12:22:18;;;;;;;4.45;2.95;;;25.00;90.70;;;;;;5071732;28;20042;-78
2021/09/09 12:24:44;;;;;;;3.30;2.50;;;25.10;90.70;;;;;;5071801;28;20070;-78
2021/09/09 12:27:17;;;;;;;3.17;2.58;;;25.10;90.60;;;;;;5071760;28;20021;-79
2021/09/09 12:29:44;;;;;;;3.88;2.80;;;25.10;90.60;;;;;;5070567;28;20033;-79
2021/09/09 12:32:28;;;;;;;3.80;2.75;;;25.10;90.50;;;;;;5071471;28;20081;-80
2021/09/09 12:35:22;;;;;;;4.88;2.90;;;25.10;90.50;;;;;;5071660;28;20059;-79
2021/09/09 12:38:07;;;;;;;3.97;2.60;;;25.10;90.50;;;;;;5071602;28;20021;-80
2021/09/09 12:40:37;;;;;;;3.88;2.60;;;25.10;90.50;;;;;;5072067;28;20112;-78
2021/09/09 12:43:19;;;;;;;5.00;2.80;;;25.10;90.50;;;;;;5071820;28;20060;-79
2021/09/09 12:45:47;;;;;;;3.90;2.60;;;25.10;90.50;;;;;;5071699;28;20107;-80
2021/09/09 12:48:12;;;;;;;4.20;2.67;;;25.10;90.40;;;;;;5071001;28;20024;-78
2021/09/09 12:50:38;;;;;;;4.03;2.72;;;25.20;90.50;;;;;;5071527;28;20107;-79
2021/09/09 12:53:04;;;;;;;5.00;2.55;;;25.20;90.50;;;;;;5071758;28;20029;-80
2021/09/09 12:55:29;;;;;;;3.30;2.30;;;25.20;90.40;;;;;;5071158;28;20025;-79
2021/09/09 12:57:55;;;;;;;3.90;2.60;;;25.20;90.40;;;;;;5071327;28;20024;-80
2021/09/09 13:00:21;;;;;;;3.78;2.40;;;25.20;90.30;;;;;;5070980;28;20101;-78
2021/09/09 13:02:46;;;;;;;3.38;2.33;;;25.20;90.30;;;;;;5071204;28;20056;-79
2021/09/09 13:05:13;;;;;;;4.28;2.95;;;25.30;90.40;;;;;;5071269;28;20028;-79
2021/09/09 13:07:39;;;;;;;3.33;2.38;;;25.30;90.40;;;;;;5071658;28;20028;-80
2021/09/09 13:10:05;;;;;;;4.40;2.67;;;25.30;90.30;;;;;;5071567;28;20031;-80